Time;durP1;ratioP1;P1;durP2;ratioP2;P2;SDS_P1;SDS_P2;PMS_P1;PMS_P2;Temp;Humidity;BMP_temperature;BMP_pressure;BME280_temperature;BME280_humidity;BME280_pressure;Samples;Min_cycle;Max_cycle;Signal;HPM_P1;HPM_P2
2023/01/12 00:01:39;;;;;;;13.80;6.20;;;20.20;56.80;;;;;;4989629;28;20026;-73
2023/01/12 00:04:05;;;;;;;12.13;6.32;;;20.20;56.80;;;;;;4972719;28;20431;-74
2023/01/12 00:06:31;;;;;;;12.40;6.20;;;20.20;56.90;;;;;;4989943;28;20042;-74
2023/01/12 00:08:57;;;;;;;13.25;5.93;;;20.20;57.00;;;;;;4972168;28;20132;-74
2023/01/12 00:11:23;;;;;;;12.02;6.28;;;20.20;57.10;;;;;;4988154;28;20045;-73
2023/01/12 00:13:49;;;;;;;12.82;6.32;;;20.20;57.10;;;;;;4972934;28;20039;-74
2023/01/12 00:19:14;;;;;;;11.20;5.43;;;20.20;57.10;;;;;;4989480;28;20038;-74
2023/01/12 00:24:29;;;;;;;10.65;5.57;;;20.20;57.20;;;;;;4989437;28;20438;-74
2023/01/12 00:26:57;;;;;;;12.82;5.18;;;20.30;57.40;;;;;;4989540;28;20391;-74
2023/01/12 00:29:24;;;;;;;11.98;6.15;;;20.30;57.40;;;;;;4989342;28;20022;-74
2023/01/12 00:31:51;;;;;;;12.57;5.60;;;20.30;57.50;;;;;;4971144;28;20038;-73
2023/01/12 00:34:17;;;;;;;12.23;6.00;;;20.20;57.50;;;;;;4971918;28;20031;-74
2023/01/12 00:36:44;;;;;;;10.63;5.80;;;20.30;57.60;;;;;;4956376;28;20087;-74
2023/01/12 00:39:11;;;;;;;11.77;5.72;;;20.30;57.60;;;;;;4971712;28;20027;-74
2023/01/12 00:47:08;;;;;;;9.48;5.50;;;20.30;57.70;;;;;;4989313;28;20091;-74
2023/01/12 00:49:35;;;;;;;11.32;5.55;;;20.30;57.70;;;;;;4971980;28;20022;-74
2023/01/12 00:52:02;;;;;;;9.48;5.68;;;20.30;57.70;;;;;;4988867;28;20034;-75
2023/01/12 00:54:28;;;;;;;8.63;5.35;;;20.30;57.80;;;;;;4972011;28;20045;-75
2023/01/12 00:56:54;;;;;;;10.60;5.70;;;20.30;57.80;;;;;;4989170;28;20469;-74
2023/01/12 00:59:19;;;;;;;9.20;5.20;;;20.30;57.80;;;;;;4989216;28;20096;-74
2023/01/12 01:01:45;;;;;;;10.70;5.65;;;20.30;57.90;;;;;;4988806;28;20033;-74
2023/01/12 01:04:11;;;;;;;11.65;5.60;;;20.30;58.00;;;;;;4988581;28;20446;-74
2023/01/12 01:06:37;;;;;;;12.18;5.68;;;20.30;58.00;;;;;;4989277;28;20022;-74
2023/01/12 01:09:03;;;;;;;9.48;5.22;;;20.30;58.00;;;;;;4988994;28;20061;-74
2023/01/12 01:11:29;;;;;;;11.80;5.47;;;20.30;58.00;;;;;;4971162;28;20046;-74
2023/01/12 01:13:55;;;;;;;10.23;5.63;;;20.30;58.10;;;;;;4970928;28;20069;-74
2023/01/12 01:16:21;;;;;;;10.02;5.82;;;20.30;58.10;;;;;;4971726;28;20534;-74
2023/01/12 01:18:47;;;;;;;12.88;5.50;;;20.30;58.20;;;;;;4988885;28;20034;-74
2023/01/12 01:21:13;;;;;;;10.80;5.47;;;20.30;58.20;;;;;;4989100;28;20069;-74
2023/01/12 01:23:41;;;;;;;14.07;5.70;;;20.30;58.20;;;;;;4988336;28;20034;-74
2023/01/12 01:26:11;;;;;;;11.25;5.47;;;20.30;58.30;;;;;;4971769;28;20372;-74
2023/01/12 01:28:37;;;;;;;10.35;5.13;;;20.30;58.30;;;;;;4988791;28;20039;-74
2023/01/12 01:31:14;;;;;;;9.63;5.25;;;20.30;58.30;;;;;;4989313;28;20480;-74
2023/01/12 01:33:41;;;;;;;9.57;5.03;;;20.30;58.30;;;;;;4988272;28;20034;-74
2023/01/12 01:36:07;;;;;;;10.55;5.05;;;20.30;58.40;;;;;;4967107;28;20058;-74
2023/01/12 01:38:34;;;;;;;9.15;4.88;;;20.30;58.40;;;;;;4988260;28;20034;-75
2023/01/12 01:41:00;;;;;;;11.85;5.63;;;20.30;58.50;;;;;;4971469;28;20138;-74
2023/01/12 01:43:28;;;;;;;9.95;4.90;;;20.30;58.50;;;;;;4970836;28;20399;-74
2023/01/12 01:46:03;;;;;;;11.40;5.43;;;20.30;58.50;;;;;;4988274;28;20026;-74
2023/01/12 01:48:32;;;;;;;8.32;5.10;;;20.30;58.50;;;;;;5020749;22;20408;-72
2023/01/12 01:51:03;;;;;;;13.40;5.68;;;20.30;58.60;;;;;;5013440;28;20026;-72
2023/01/12 01:53:34;;;;;;;9.45;5.32;;;20.30;58.70;;;;;;5015314;28;20056;-73
2023/01/12 01:56:08;;;;;;;10.18;5.03;;;20.30;58.70;;;;;;4999904;28;20110;-71
2023/01/12 01:58:42;;;;;;;12.82;4.95;;;20.30;58.70;;;;;;5033896;28;20440;-72
2023/01/12 02:01:08;;;;;;;10.23;3.60;;;20.10;56.10;;;;;;4999639;28;20025;-71
2023/01/12 02:03:36;;;;;;;11.10;3.63;;;19.90;52.50;;;;;;5033254;28;20029;-72
2023/01/12 02:06:03;;;;;;;12.50;3.38;;;19.70;50.80;;;;;;5016254;28;20091;-74
2023/01/12 02:08:51;;;;;;;12.10;3.60;;;19.70;51.40;;;;;;5015942;28;20029;-73
2023/01/12 02:17:11;;;;;;;47.88;7.72;;;19.90;55.00;;;;;;5033425;28;20036;-74
2023/01/12 02:19:59;;;;;;;25.02;5.70;;;19.90;54.10;;;;;;5033322;28;20039;-74
2023/01/12 02:22:56;;;;;;;15.45;6.85;;;20.00;53.50;;;;;;5032432;28;20389;-71
2023/01/12 02:25:50;;;;;;;19.85;7.28;;;20.00;53.60;;;;;;5031492;28;20036;-71
2023/01/12 02:28:53;;;;;;;21.88;5.57;;;20.00;54.20;;;;;;5031350;28;20128;-71
2023/01/12 02:31:50;;;;;;;19.20;6.45;;;20.00;54.10;;;;;;5027611;28;20458;-74
2023/01/12 02:34:24;;;;;;;24.80;6.90;;;20.00;55.20;;;;;;5011516;28;20096;-71
2023/01/12 02:37:09;;;;;;;24.10;8.70;;;20.00;54.90;;;;;;5011736;28;20057;-71
2023/01/12 02:39:58;;;;;;;24.20;7.10;;;20.00;55.30;;;;;;4995590;28;20088;-71
2023/01/12 02:42:40;;;;;;;27.43;8.03;;;20.00;55.50;;;;;;4995322;28;20057;-71
2023/01/12 02:45:24;;;;;;;27.98;8.38;;;20.00;55.70;;;;;;5013062;28;20033;-71
2023/01/12 02:48:04;;;;;;;28.05;8.98;;;20.10;55.90;;;;;;5013037;28;20045;-71
2023/01/12 02:50:39;;;;;;;26.52;8.93;;;20.00;56.00;;;;;;4995729;28;20036;-71
2023/01/12 02:53:12;;;;;;;25.02;9.15;;;20.10;56.10;;;;;;4995257;28;20048;-71
2023/01/12 02:55:40;;;;;;;34.50;9.63;;;20.10;56.30;;;;;;4995349;28;20075;-71
2023/01/12 02:58:09;;;;;;;29.00;9.00;;;20.10;56.40;;;;;;4995361;28;20022;-71
2023/01/12 03:00:37;;;;;;;24.70;8.65;;;20.10;56.40;;;;;;5012764;28;20133;-71
2023/01/12 03:03:05;;;;;;;30.90;9.35;;;20.10;56.40;;;;;;4994391;28;20398;-71
2023/01/12 03:05:31;;;;;;;26.98;9.50;;;20.10;56.60;;;;;;4995047;28;20402;-71
2023/01/12 03:08:03;;;;;;;24.20;8.88;;;20.10;56.40;;;;;;5012822;28;20032;-72
2023/01/12 03:10:41;;;;;;;23.10;8.68;;;20.10;56.40;;;;;;4995574;28;20061;-71
2023/01/12 03:13:12;;;;;;;23.65;8.75;;;20.10;56.60;;;;;;5012476;28;20087;-71
2023/01/12 03:15:44;;;;;;;24.23;8.05;;;20.10;56.60;;;;;;4995263;28;20034;-71
2023/01/12 03:18:17;;;;;;;25.05;8.75;;;20.10;56.70;;;;;;4995009;28;20064;-71
2023/01/12 03:20:48;;;;;;;20.95;8.27;;;20.10;56.60;;;;;;5012391;28;20306;-71
2023/01/12 03:23:26;;;;;;;23.75;7.90;;;20.10;56.70;;;;;;4994530;28;20034;-72
2023/01/12 03:25:56;;;;;;;27.75;9.48;;;20.00;56.60;;;;;;5012330;28;20033;-71
2023/01/12 03:28:25;;;;;;;23.00;8.52;;;20.10;56.90;;;;;;5012448;28;20092;-72
2023/01/12 03:30:59;;;;;;;28.52;9.90;;;20.00;56.80;;;;;;5012639;28;20075;-71
2023/01/12 03:33:25;;;;;;;26.17;9.60;;;20.10;56.90;;;;;;4994550;28;20033;-71
2023/01/12 03:36:23;;;;;;;27.65;10.23;;;20.00;57.10;;;;;;5012522;28;20030;-71
2023/01/12 03:39:14;;;;;;;25.60;9.82;;;20.10;57.30;;;;;;5012148;28;20133;-71
2023/01/12 03:41:52;;;;;;;29.10;10.05;;;20.10;57.50;;;;;;5010856;28;20116;-71
2023/01/12 03:44:28;;;;;;;23.77;10.07;;;20.10;57.50;;;;;;4994733;28;20033;-71
2023/01/12 03:47:00;;;;;;;29.05;10.25;;;20.10;57.60;;;;;;4994524;28;20075;-71
2023/01/12 03:49:38;;;;;;;26.38;10.00;;;20.10;57.70;;;;;;4994511;28;20033;-72
2023/01/12 03:52:07;;;;;;;26.17;10.07;;;20.10;57.80;;;;;;5011593;28;20029;-72
2023/01/12 03:54:35;;;;;;;20.42;8.73;;;20.10;57.70;;;;;;5012012;28;20038;-71
2023/01/12 03:57:03;;;;;;;24.13;9.90;;;20.10;57.80;;;;;;5011921;28;20066;-71
2023/01/12 03:59:29;;;;;;;23.50;9.00;;;20.10;57.80;;;;;;4994515;28;20391;-71
2023/01/12 04:01:54;;;;;;;25.00;9.02;;;20.10;57.80;;;;;;4977529;28;20045;-71
2023/01/12 04:04:21;;;;;;;24.20;8.93;;;20.10;57.70;;;;;;4994145;28;20105;-71
2023/01/12 04:06:47;;;;;;;20.45;8.60;;;20.10;57.70;;;;;;5012095;28;20032;-71
2023/01/12 04:09:13;;;;;;;22.75;8.90;;;20.10;57.70;;;;;;4994089;28;20120;-71
2023/01/12 04:14:23;;;;;;;23.10;8.57;;;20.10;57.50;;;;;;5010855;28;20026;-71
2023/01/12 04:16:48;;;;;;;21.90;8.23;;;20.10;57.60;;;;;;5011571;28;20390;-71
2023/01/12 04:19:14;;;;;;;21.23;9.10;;;20.10;57.60;;;;;;4993958;28;20133;-71
2023/01/12 04:24:24;;;;;;;20.80;8.48;;;20.10;57.70;;;;;;5011477;28;20022;-71
2023/01/12 04:26:50;;;;;;;20.75;8.40;;;20.10;57.80;;;;;;4993904;28;20088;-71
2023/01/12 04:29:15;;;;;;;20.95;8.43;;;20.10;57.70;;;;;;4994146;28;20026;-71
2023/01/12 04:31:41;;;;;;;21.40;8.27;;;20.00;57.60;;;;;;5011025;28;20486;-71
2023/01/12 04:34:07;;;;;;;20.23;8.25;;;20.10;57.60;;;;;;5011301;28;20025;-71
2023/01/12 04:36:33;;;;;;;23.20;9.15;;;20.00;57.70;;;;;;5011390;28;20064;-71
2023/01/12 04:38:58;;;;;;;19.50;7.55;;;20.10;57.70;;;;;;5011198;28;20037;-71
2023/01/12 04:41:24;;;;;;;18.77;7.93;;;20.10;57.70;;;;;;5010845;28;20038;-71
2023/01/12 04:43:50;;;;;;;20.73;7.82;;;20.00;58.30;;;;;;5011331;28;20033;-71
2023/01/12 04:46:16;;;;;;;21.73;8.60;;;20.00;57.70;;;;;;5011087;28;20022;-71
2023/01/12 04:48:43;;;;;;;19.85;7.70;;;20.00;57.80;;;;;;5010864;28;20128;-71
2023/01/12 04:51:08;;;;;;;18.83;7.25;;;20.00;57.70;;;;;;5011247;28;20034;-71
2023/01/12 04:53:34;;;;;;;20.27;8.27;;;20.00;57.70;;;;;;4993166;28;20044;-71
2023/01/12 04:56:05;;;;;;;20.77;9.45;;;20.10;57.70;;;;;;5011227;28;20033;-71
2023/01/12 04:58:31;;;;;;;17.02;7.75;;;20.10;57.70;;;;;;4977523;28;20034;-71
2023/01/12 05:00:57;;;;;;;19.80;8.35;;;20.00;57.70;;;;;;4993708;28;20060;-71
2023/01/12 05:03:23;;;;;;;19.70;7.97;;;20.00;57.70;;;;;;5010574;28;20026;-71
2023/01/12 05:05:49;;;;;;;18.83;7.50;;;20.00;57.70;;;;;;4979914;28;20371;-71
2023/01/12 05:11:00;;;;;;;18.42;7.82;;;20.10;57.80;;;;;;5010276;28;20100;-71
2023/01/12 05:13:30;;;;;;;18.00;6.97;;;20.00;57.80;;;;;;5005512;28;20041;-71
2023/01/12 05:15:55;;;;;;;21.48;8.35;;;20.00;57.80;;;;;;5009212;28;20061;-71
2023/01/12 05:18:21;;;;;;;16.35;7.57;;;20.00;57.80;;;;;;5010422;28;20468;-71
2023/01/12 05:20:47;;;;;;;18.77;7.93;;;20.00;57.80;;;;;;4976426;28;20125;-71
2023/01/12 05:23:13;;;;;;;17.63;7.30;;;20.00;57.80;;;;;;5010483;28;20056;-71
2023/01/12 05:25:39;;;;;;;19.02;7.30;;;20.00;57.90;;;;;;5011423;28;20025;-71
2023/01/12 05:28:04;;;;;;;16.98;6.75;;;20.00;57.80;;;;;;5012475;28;20125;-71
2023/01/12 05:30:30;;;;;;;15.82;6.75;;;20.00;57.90;;;;;;5014367;28;20072;-71
2023/01/12 05:32:56;;;;;;;17.50;7.13;;;20.00;57.90;;;;;;5014086;28;20080;-70
2023/01/12 05:35:22;;;;;;;18.35;7.03;;;20.00;57.90;;;;;;5013162;28;20042;-70
2023/01/12 05:37:48;;;;;;;17.52;7.07;;;20.00;57.90;;;;;;5014529;28;20418;-71
2023/01/12 05:40:14;;;;;;;17.65;7.60;;;20.00;57.90;;;;;;5014589;28;20475;-71
2023/01/12 05:45:25;;;;;;;20.15;7.30;;;20.00;57.90;;;;;;5014064;28;20663;-71
2023/01/12 05:47:59;;;;;;;16.05;6.82;;;20.00;58.00;;;;;;5013697;28;20022;-71
2023/01/12 05:50:25;;;;;;;16.55;7.45;;;20.00;58.00;;;;;;5014167;28;20022;-71
2023/01/12 05:53:06;;;;;;;13.98;6.30;;;20.00;58.00;;;;;;5013786;28;20034;-71
2023/01/12 05:55:32;;;;;;;15.48;7.13;;;20.00;58.00;;;;;;5014189;28;20117;-71
2023/01/12 05:57:59;;;;;;;16.25;7.10;;;20.00;58.00;;;;;;5014006;28;20105;-71
2023/01/12 06:00:24;;;;;;;20.90;7.30;;;20.00;57.90;;;;;;5014006;28;20156;-71
2023/01/12 06:02:50;;;;;;;15.90;6.95;;;20.00;57.90;;;;;;5013604;28;20462;-71
2023/01/12 06:05:16;;;;;;;14.68;6.32;;;20.00;57.90;;;;;;5013246;28;20124;-71
2023/01/12 06:07:41;;;;;;;13.88;6.57;;;20.00;57.90;;;;;;5013745;28;20025;-71
2023/01/12 06:10:08;;;;;;;14.70;6.53;;;20.00;57.90;;;;;;5013783;28;20397;-71
2023/01/12 06:15:23;;;;;;;15.57;6.87;;;20.00;58.00;;;;;;4994238;28;20701;-71
2023/01/12 06:17:49;;;;;;;15.57;6.78;;;20.00;58.00;;;;;;5013702;28;20030;-71
2023/01/12 06:20:16;;;;;;;14.68;6.53;;;20.00;58.10;;;;;;5012297;28;20041;-71
2023/01/12 06:22:43;;;;;;;15.40;6.97;;;20.00;58.10;;;;;;5013211;28;20068;-71
2023/01/12 06:25:10;;;;;;;16.08;6.22;;;20.00;58.10;;;;;;5013800;28;20022;-71
2023/01/12 06:27:37;;;;;;;15.68;6.72;;;20.00;58.10;;;;;;5013724;28;20057;-71
2023/01/12 06:30:05;;;;;;;17.33;6.97;;;20.00;58.10;;;;;;5013462;28;20072;-71
2023/01/12 06:32:31;;;;;;;14.57;6.65;;;20.00;58.10;;;;;;5012115;28;20037;-71
2023/01/12 06:34:57;;;;;;;15.38;6.80;;;20.00;58.10;;;;;;5013123;28;20485;-71
2023/01/12 06:37:24;;;;;;;14.95;6.55;;;20.00;58.10;;;;;;5012272;28;20026;-71
2023/01/12 06:39:50;;;;;;;16.35;6.63;;;19.90;58.10;;;;;;5013169;28;20033;-71
2023/01/12 06:42:27;;;;;;;18.83;6.97;;;19.90;58.10;;;;;;5011696;28;20371;-71
2023/01/12 06:44:58;;;;;;;15.20;6.28;;;19.90;58.20;;;;;;5013182;28;20026;-71
2023/01/12 06:47:25;;;;;;;14.60;6.88;;;19.90;58.10;;;;;;5013048;28;20033;-71
2023/01/12 06:49:51;;;;;;;14.38;7.20;;;19.90;58.10;;;;;;5011821;28;20041;-71
2023/01/12 06:52:21;;;;;;;12.90;6.13;;;19.90;58.10;;;;;;5012785;28;20402;-71
2023/01/12 06:54:47;;;;;;;;;;;19.90;58.20;;;;;;5013568;28;20068;-71
2023/01/12 06:57:13;;;;;;;13.38;6.28;;;19.90;58.10;;;;;;5011909;28;20423;-71
2023/01/12 06:59:40;;;;;;;14.93;6.57;;;19.90;58.00;;;;;;5012961;28;20453;-71
2023/01/12 07:02:14;;;;;;;16.63;6.50;;;20.00;58.10;;;;;;5011184;28;20129;-72
2023/01/12 07:04:40;;;;;;;13.88;5.65;;;19.90;58.10;;;;;;5011626;28;20034;-72
2023/01/12 07:07:08;;;;;;;13.90;6.57;;;20.00;58.10;;;;;;4995517;28;20026;-72
2023/01/12 07:09:34;;;;;;;13.27;6.03;;;19.90;58.10;;;;;;5012667;28;20045;-72
2023/01/12 07:12:00;;;;;;;13.82;6.13;;;19.90;58.10;;;;;;5011060;28;20752;-72
2023/01/12 07:14:26;;;;;;;14.15;6.70;;;19.90;58.10;;;;;;5012541;28;20106;-71
2023/01/12 07:16:52;;;;;;;15.20;6.65;;;19.90;58.10;;;;;;5012702;28;20084;-71
2023/01/12 07:19:18;;;;;;;13.10;6.35;;;19.90;58.10;;;;;;5012388;28;20030;-71
2023/01/12 07:21:44;;;;;;;13.52;6.15;;;19.90;58.10;;;;;;5012186;28;20470;-71
2023/01/12 07:24:10;;;;;;;15.77;6.50;;;19.90;58.10;;;;;;5012346;28;20029;-71
2023/01/12 07:26:36;;;;;;;14.32;6.47;;;19.90;58.10;;;;;;5011281;28;20040;-71
2023/01/12 07:29:02;;;;;;;13.68;6.28;;;19.90;58.10;;;;;;5012438;28;20025;-71
2023/01/12 07:31:27;;;;;;;19.67;7.88;;;19.90;58.20;;;;;;5011191;28;20483;-71
2023/01/12 07:33:53;;;;;;;24.58;9.27;;;19.90;59.60;;;;;;5012230;28;20065;-71
2023/01/12 07:36:20;;;;;;;18.35;9.05;;;20.00;60.20;;;;;;5012343;28;20042;-70
2023/01/12 07:38:45;;;;;;;18.48;8.93;;;20.10;62.00;;;;;;5010942;28;20144;-71
2023/01/12 07:44:06;;;;;;;21.80;9.00;;;20.20;62.50;;;;;;5010805;28;20493;-71
2023/01/12 07:46:32;;;;;;;21.23;9.23;;;20.20;62.80;;;;;;5011426;28;20040;-71
2023/01/12 07:48:58;;;;;;;19.30;10.23;;;20.30;63.30;;;;;;5011787;28;20048;-71
2023/01/12 07:51:23;;;;;;;30.65;10.50;;;20.30;64.10;;;;;;5010564;28;20113;-70
2023/01/12 07:53:49;;;;;;;19.90;10.43;;;20.30;64.50;;;;;;5012187;28;20084;-71
2023/01/12 07:56:15;;;;;;;20.73;9.60;;;20.30;64.50;;;;;;4994191;28;20056;-71
2023/01/12 07:58:48;;;;;;;22.88;9.48;;;20.30;63.90;;;;;;5011707;28;20140;-71
2023/01/12 08:01:14;;;;;;;27.23;9.23;;;20.40;63.90;;;;;;5011859;28;20897;-72
2023/01/12 08:03:40;;;;;;;27.05;9.25;;;20.40;63.60;;;;;;5009152;28;20302;-71
2023/01/12 08:06:06;;;;;;;25.80;9.60;;;20.40;63.40;;;;;;4991271;28;20442;-71
2023/01/12 17:29:19;;;;;;;12.93;6.00;;;19.90;61.60;;;;;;5067596;28;20361;-80
2023/01/12 17:31:46;;;;;;;18.83;13.35;;;20.00;61.70;;;;;;5068227;28;20040;-80
2023/01/12 17:34:13;;;;;;;19.98;12.23;;;19.90;60.30;;;;;;5067163;28;20033;-80
2023/01/12 17:36:40;;;;;;;19.65;12.90;;;19.90;58.20;;;;;;5068424;28;20056;-71
2023/01/12 17:39:06;;;;;;;18.50;12.38;;;19.80;57.30;;;;;;5068329;28;20025;-72
2023/01/12 17:44:16;;;;;;;18.98;11.13;;;19.90;58.40;;;;;;5026867;28;20083;-74
2023/01/12 17:46:43;;;;;;;21.83;12.20;;;19.90;58.00;;;;;;5010794;28;20022;-72
2023/01/12 17:49:09;;;;;;;17.35;10.70;;;20.00;58.30;;;;;;5027591;28;20061;-72
2023/01/12 17:51:36;;;;;;;22.70;11.02;;;20.00;58.30;;;;;;5010820;28;20493;-72
2023/01/12 17:54:05;;;;;;;18.10;11.00;;;20.10;58.30;;;;;;5028037;28;20496;-72
2023/01/12 17:56:33;;;;;;;18.23;10.68;;;20.10;58.40;;;;;;5027712;28;20096;-72
2023/01/12 17:58:59;;;;;;;22.85;10.88;;;20.10;58.50;;;;;;5027418;28;20037;-72
2023/01/12 18:01:30;;;;;;;18.30;10.10;;;20.10;58.60;;;;;;5028361;28;20083;-73
2023/01/12 18:03:58;;;;;;;19.85;10.35;;;20.10;58.70;;;;;;5010650;28;20029;-72
2023/01/12 18:06:24;;;;;;;18.45;10.32;;;20.10;58.70;;;;;;5027453;28;20080;-72
2023/01/12 18:08:50;;;;;;;26.30;9.80;;;20.10;58.80;;;;;;5028021;28;20026;-72
2023/01/12 18:11:17;;;;;;;18.35;10.40;;;20.10;58.90;;;;;;4994217;28;20492;-72
2023/01/12 18:13:42;;;;;;;18.90;10.55;;;20.10;58.80;;;;;;5028437;28;20408;-72
2023/01/12 18:16:10;;;;;;;16.15;9.77;;;20.10;59.10;;;;;;5027699;28;20032;-72
2023/01/12 18:18:40;;;;;;;17.63;9.82;;;20.10;59.10;;;;;;5026864;28;20389;-73
2023/01/12 18:21:15;;;;;;;22.10;10.88;;;20.10;59.70;;;;;;5026633;28;20396;-74
2023/01/12 18:23:42;;;;;;;18.27;9.70;;;20.20;59.30;;;;;;5027990;28;20444;-73
2023/01/12 18:26:16;;;;;;;16.85;8.85;;;20.20;59.30;;;;;;5027635;28;20036;-72
2023/01/12 18:28:41;;;;;;;19.38;10.30;;;20.10;59.30;;;;;;5026670;28;20060;-72
2023/01/12 18:31:13;;;;;;;21.38;10.07;;;20.20;59.30;;;;;;5027869;28;20030;-72
2023/01/12 18:33:39;;;;;;;15.20;9.35;;;20.10;59.40;;;;;;5026640;28;20066;-71
2023/01/12 18:36:13;;;;;;;14.75;8.57;;;20.20;59.50;;;;;;5027283;28;20022;-72
2023/01/12 18:38:42;;;;;;;17.70;9.52;;;20.20;59.50;;;;;;5025655;28;20029;-72
2023/01/12 18:43:53;;;;;;;14.60;9.10;;;20.20;59.60;;;;;;5014658;28;20110;-72
2023/01/12 18:46:19;;;;;;;18.40;9.27;;;20.20;59.60;;;;;;5013935;28;20114;-72
2023/01/12 18:48:48;;;;;;;13.68;8.65;;;20.10;59.60;;;;;;5014265;28;20044;-72
2023/01/12 18:53:59;;;;;;;13.75;8.45;;;20.20;59.80;;;;;;5013202;28;20171;-72
2023/01/12 18:56:25;;;;;;;19.98;9.52;;;20.20;59.90;;;;;;5012855;28;20025;-72
2023/01/12 18:58:51;;;;;;;17.80;9.60;;;20.20;59.70;;;;;;5014055;28;20030;-72
2023/01/12 19:01:23;;;;;;;14.18;8.05;;;20.20;59.90;;;;;;5013939;28;20052;-72
2023/01/12 19:03:50;;;;;;;18.58;9.95;;;20.20;59.90;;;;;;5012560;28;20030;-71
2023/01/12 19:06:22;;;;;;;14.07;8.68;;;20.20;60.00;;;;;;5013309;28;20036;-72
2023/01/12 19:11:34;;;;;;;14.48;9.23;;;20.10;60.00;;;;;;5010577;28;20029;-71
2023/01/12 19:19:30;;;;;;;38.78;9.25;;;20.20;60.20;;;;;;5013378;28;20025;-72
2023/01/12 19:30:10;;;;;;;22.83;9.02;;;20.30;61.20;;;;;;5013968;28;20032;-73
2023/01/12 19:32:35;;;;;;;16.63;8.80;;;20.40;61.60;;;;;;5013503;28;20045;-75
2023/01/12 19:35:02;;;;;;;25.48;11.90;;;20.40;61.30;;;;;;5012956;28;20057;-72
2023/01/12 19:37:28;;;;;;;25.50;14.45;;;20.30;61.10;;;;;;5011756;28;20497;-72
2023/01/12 19:40:01;;;;;;;46.53;35.03;;;20.20;60.00;;;;;;5011233;28;20037;-72
